createdAt,value
2023-02-19T00:01:11.291Z,7.13
2023-02-19T00:03:38.205Z,7.65
2023-02-19T00:06:05.548Z,6.82
2023-02-19T00:08:32.596Z,9.35
2023-02-19T00:11:06.135Z,8.57
2023-02-19T00:13:35.815Z,8.18
2023-02-19T00:16:18.685Z,7.40
2023-02-19T00:18:45.242Z,7.10
2023-02-19T00:21:12.148Z,7.10
2023-02-19T00:23:38.549Z,7.78
2023-02-19T00:26:17.622Z,6.80
2023-02-19T00:28:45.279Z,5.50
2023-02-19T00:31:19.740Z,6.50
2023-02-19T00:33:46.920Z,8.10
2023-02-19T00:36:13.727Z,7.00
2023-02-19T00:38:40.810Z,6.00
2023-02-19T00:41:19.266Z,5.75
2023-02-19T00:43:45.732Z,6.30
2023-02-19T00:46:12.044Z,5.72
2023-02-19T00:48:38.300Z,6.35
2023-02-19T00:51:04.552Z,8.00
2023-02-19T00:53:30.787Z,7.82
2023-02-19T00:55:57.008Z,7.05
2023-02-19T00:58:23.222Z,7.85
2023-02-19T01:00:49.415Z,8.07
2023-02-19T01:03:15.629Z,6.60
2023-02-19T01:05:41.850Z,6.93
2023-02-19T01:08:08.087Z,7.25
2023-02-19T01:10:34.285Z,6.18
2023-02-19T01:13:00.497Z,6.47
2023-02-19T01:15:26.716Z,5.85
2023-02-19T01:17:52.908Z,5.90
2023-02-19T01:20:19.430Z,7.03
2023-02-19T01:22:45.626Z,7.20
2023-02-19T01:25:11.826Z,6.15
2023-02-19T01:27:38.021Z,5.78
2023-02-19T01:30:04.400Z,7.13
2023-02-19T01:32:30.622Z,7.00
2023-02-19T01:34:56.828Z,6.35
2023-02-19T01:37:23.033Z,8.25
2023-02-19T01:39:49.233Z,7.28
2023-02-19T01:42:16.997Z,7.13
2023-02-19T01:44:43.224Z,5.72
2023-02-19T01:47:09.436Z,7.97
2023-02-19T01:49:37.910Z,7.88
2023-02-19T01:52:18.175Z,6.45
2023-02-19T01:54:45.775Z,6.88
2023-02-19T01:57:15.701Z,7.03
2023-02-19T01:59:42.316Z,9.50
2023-02-19T02:02:08.766Z,9.00
2023-02-19T02:04:35.173Z,10.77
2023-02-19T02:07:03.189Z,8.90
2023-02-19T02:09:49.493Z,10.27
2023-02-19T02:12:15.820Z,8.88
2023-02-19T02:14:44.975Z,7.97
2023-02-19T02:17:14.324Z,8.05
2023-02-19T02:19:43.637Z,7.18
2023-02-19T02:22:15.017Z,8.38
2023-02-19T02:24:52.902Z,8.57
2023-02-19T02:27:19.084Z,6.90
2023-02-19T02:29:55.064Z,8.18
2023-02-19T02:32:24.156Z,8.52
2023-02-19T02:34:59.416Z,8.93
2023-02-19T02:37:27.888Z,7.70
2023-02-19T02:39:54.892Z,9.57
2023-02-19T02:42:27.265Z,8.40
2023-02-19T02:45:13.105Z,7.72
2023-02-19T02:47:42.673Z,8.52
2023-02-19T02:50:10.705Z,7.30
2023-02-19T02:52:56.906Z,6.45
2023-02-19T02:55:24.020Z,8.27
2023-02-19T02:57:50.505Z,6.80
2023-02-19T03:00:16.817Z,6.57
2023-02-19T03:02:43.379Z,10.18
2023-02-19T03:05:30.623Z,10.43
2023-02-19T03:08:12.405Z,8.18
2023-02-19T03:10:44.374Z,8.52
2023-02-19T03:13:31.498Z,7.65
2023-02-19T03:16:18.515Z,9.57
2023-02-19T03:19:05.063Z,10.15
2023-02-19T03:21:32.654Z,10.57
2023-02-19T03:24:17.575Z,12.95
2023-02-19T03:26:44.623Z,10.57
2023-02-19T03:29:23.738Z,10.43
2023-02-19T03:31:52.279Z,12.10
2023-02-19T03:34:26.949Z,13.05
2023-02-19T03:37:02.135Z,14.65
2023-02-19T03:39:28.458Z,14.10
2023-02-19T03:41:57.634Z,13.25
2023-02-19T03:44:44.861Z,14.35
2023-02-19T03:47:15.943Z,16.35
2023-02-19T03:50:03.217Z,15.07
2023-02-19T03:52:35.574Z,16.02
2023-02-19T03:55:17.858Z,17.23
2023-02-19T03:57:47.561Z,15.93
2023-02-19T04:00:16.962Z,14.02
2023-02-19T04:02:48.717Z,14.88
2023-02-19T04:05:18.254Z,16.20
2023-02-19T04:07:46.519Z,14.70
2023-02-19T04:10:13.114Z,14.00
2023-02-19T04:12:40.816Z,16.65
2023-02-19T04:15:10.060Z,14.05
2023-02-19T04:17:38.600Z,15.52
2023-02-19T04:20:06.877Z,18.85
2023-02-19T04:22:34.101Z,19.20
2023-02-19T04:25:00.822Z,16.23
2023-02-19T04:27:27.135Z,18.67
2023-02-19T04:29:53.352Z,18.77
2023-02-19T04:32:19.707Z,21.90
2023-02-19T04:34:45.964Z,16.73
2023-02-19T04:37:12.218Z,16.88
2023-02-19T04:39:38.455Z,17.73
2023-02-19T04:42:04.690Z,17.23
2023-02-19T04:44:30.897Z,21.42
2023-02-19T04:46:57.102Z,21.75
2023-02-19T04:49:23.297Z,17.17
2023-02-19T04:51:49.490Z,18.25
2023-02-19T04:54:15.794Z,22.33
2023-02-19T04:56:42.014Z,18.15
2023-02-19T04:59:08.220Z,18.08
2023-02-19T05:01:34.437Z,21.83
2023-02-19T05:04:00.752Z,19.70
2023-02-19T05:06:27.389Z,17.25
2023-02-19T05:08:53.627Z,20.63
2023-02-19T05:11:19.916Z,21.17
2023-02-19T05:13:46.170Z,18.52
2023-02-19T05:16:15.868Z,19.23
2023-02-19T05:18:42.809Z,17.98
2023-02-19T05:21:09.536Z,20.92
2023-02-19T05:23:36.088Z,22.83
2023-02-19T05:26:05.966Z,20.75
2023-02-19T05:28:32.236Z,20.35
2023-02-19T05:30:58.463Z,18.85
2023-02-19T05:33:25.786Z,18.45
2023-02-19T05:35:53.702Z,22.30
2023-02-19T05:38:20.198Z,21.77
2023-02-19T05:40:46.692Z,19.63
2023-02-19T05:43:13.132Z,20.42
2023-02-19T05:45:39.774Z,19.90
2023-02-19T05:48:06.378Z,19.63
2023-02-19T05:50:33.853Z,17.80
2023-02-19T05:53:03.836Z,20.83
2023-02-19T05:55:30.488Z,21.08
2023-02-19T05:57:56.684Z,21.55
2023-02-19T06:00:23.102Z,17.55
2023-02-19T06:02:49.378Z,17.63
2023-02-19T06:05:15.728Z,20.17
2023-02-19T06:07:42.864Z,16.67
2023-02-19T06:10:10.753Z,22.00
2023-02-19T06:12:37.243Z,21.67
2023-02-19T06:15:04.586Z,22.38
2023-02-19T06:17:30.893Z,21.15
2023-02-19T06:19:57.200Z,19.27
2023-02-19T06:22:23.409Z,23.55
2023-02-19T06:24:49.617Z,21.38
2023-02-19T06:27:16.121Z,22.90
2023-02-19T06:29:42.373Z,24.52
2023-02-19T06:32:08.742Z,22.95
2023-02-19T06:34:35.197Z,24.38
2023-02-19T06:37:01.480Z,23.52
2023-02-19T06:39:27.739Z,20.75
2023-02-19T06:41:59.878Z,17.27
2023-02-19T06:44:26.106Z,22.92
2023-02-19T06:46:54.567Z,24.63
2023-02-19T06:49:20.834Z,20.73
2023-02-19T06:51:47.087Z,21.65
2023-02-19T06:54:13.280Z,21.83
2023-02-19T06:56:40.271Z,23.00
2023-02-19T06:59:07.646Z,20.10
2023-02-19T07:01:34.681Z,23.45
2023-02-19T07:04:01.261Z,19.60
2023-02-19T07:06:28.162Z,21.10
2023-02-19T07:08:55.296Z,20.13
2023-02-19T07:11:21.907Z,22.00
2023-02-19T07:13:48.173Z,20.02
2023-02-19T07:16:15.110Z,19.70
2023-02-19T07:18:41.362Z,20.20
2023-02-19T07:21:09.019Z,19.88
2023-02-19T07:23:35.666Z,18.95
2023-02-19T07:26:02.031Z,20.90
2023-02-19T07:28:28.313Z,19.80
2023-02-19T07:30:54.842Z,16.20
2023-02-19T07:33:21.102Z,15.48
2023-02-19T07:35:47.824Z,17.30
2023-02-19T07:38:17.628Z,19.70
2023-02-19T07:40:50.803Z,22.38
2023-02-19T07:43:17.009Z,21.27
2023-02-19T07:45:43.293Z,17.27
2023-02-19T07:48:09.507Z,20.58
2023-02-19T07:50:35.710Z,19.83
2023-02-19T07:53:01.963Z,16.52
2023-02-19T07:55:28.352Z,21.00
2023-02-19T07:57:54.563Z,22.92
2023-02-19T08:00:20.937Z,22.80
2023-02-19T08:03:02.906Z,20.15
2023-02-19T08:05:30.628Z,21.38
2023-02-19T08:07:57.417Z,19.27
2023-02-19T08:10:42.279Z,18.20
2023-02-19T08:13:19.209Z,17.58
2023-02-19T08:16:01.661Z,20.65
2023-02-19T08:18:34.041Z,17.70
2023-02-19T08:21:00.336Z,20.33
2023-02-19T08:23:26.925Z,18.73
2023-02-19T08:25:53.793Z,16.63
2023-02-19T08:28:20.058Z,16.17
2023-02-19T08:30:47.185Z,17.15
2023-02-19T08:33:14.604Z,18.30
2023-02-19T08:35:41.744Z,17.65
2023-02-19T08:38:08.657Z,20.50
2023-02-19T08:40:35.094Z,16.83
2023-02-19T08:43:09.133Z,15.30
2023-02-19T08:45:36.813Z,15.18
2023-02-19T08:48:03.084Z,14.95
2023-02-19T08:50:29.333Z,19.35
2023-02-19T08:52:55.555Z,15.82
2023-02-19T08:55:21.778Z,18.60
2023-02-19T08:57:50.321Z,18.05
2023-02-19T09:00:16.948Z,13.35
2023-02-19T09:02:43.163Z,15.73
2023-02-19T09:05:10.875Z,14.20
2023-02-19T09:07:37.174Z,15.55
2023-02-19T09:10:04.230Z,16.95
2023-02-19T09:12:30.644Z,15.15
2023-02-19T09:14:56.860Z,18.73
2023-02-19T09:17:23.057Z,13.57
2023-02-19T09:19:50.842Z,15.48
2023-02-19T09:22:17.358Z,16.73
2023-02-19T09:24:43.805Z,14.60
2023-02-19T09:27:14.510Z,15.85
2023-02-19T09:29:40.750Z,14.80
2023-02-19T09:32:06.995Z,18.38
2023-02-19T09:34:33.307Z,10.75
2023-02-19T09:36:59.669Z,13.73
2023-02-19T09:39:25.880Z,16.15
2023-02-19T09:41:54.245Z,14.50
2023-02-19T09:44:34.537Z,11.38
2023-02-19T09:47:01.432Z,14.15
2023-02-19T09:49:35.132Z,13.05
2023-02-19T09:52:04.432Z,12.48
2023-02-19T09:54:31.894Z,11.63
2023-02-19T09:57:00.002Z,14.60
2023-02-19T09:59:28.704Z,8.85
2023-02-19T10:02:02.693Z,11.55
2023-02-19T10:04:29.007Z,12.02
2023-02-19T10:07:00.555Z,10.88
2023-02-19T10:11:57.997Z,14.02
2023-02-19T10:14:39.107Z,10.98
2023-02-19T10:17:05.876Z,11.00
2023-02-19T10:19:33.176Z,15.75
2023-02-19T10:21:59.967Z,13.65
2023-02-19T10:24:27.494Z,11.95
2023-02-19T10:26:54.135Z,10.23
2023-02-19T10:29:21.853Z,14.73
2023-02-19T10:31:48.297Z,12.07
2023-02-19T10:34:23.327Z,10.95
2023-02-19T10:36:50.912Z,10.77
2023-02-19T10:39:22.903Z,11.32
2023-02-19T10:41:50.538Z,9.50
2023-02-19T10:44:20.741Z,13.70
2023-02-19T10:46:48.137Z,12.85
2023-02-19T10:49:32.558Z,15.63
2023-02-19T10:52:02.307Z,10.63
2023-02-19T10:54:31.072Z,13.18
2023-02-19T10:57:15.697Z,13.43
2023-02-19T10:59:52.553Z,13.73
2023-02-19T11:02:19.852Z,14.68
2023-02-19T11:05:04.606Z,12.07
2023-02-19T11:07:31.124Z,11.02
2023-02-19T11:09:58.337Z,11.90
2023-02-19T11:12:31.794Z,12.73
2023-02-19T11:15:00.358Z,11.70
2023-02-19T11:17:28.264Z,13.38
2023-02-19T11:20:04.561Z,10.23
2023-02-19T11:22:32.369Z,12.18
2023-02-19T11:25:02.893Z,10.85
2023-02-19T11:27:29.137Z,12.68
2023-02-19T11:30:15.457Z,15.32
2023-02-19T11:32:41.671Z,12.50
2023-02-19T11:35:14.311Z,11.18
2023-02-19T11:37:53.743Z,13.40
2023-02-19T11:40:22.101Z,13.02
2023-02-19T11:42:51.826Z,11.73
2023-02-19T11:45:37.256Z,11.38
2023-02-19T11:48:17.077Z,12.32
2023-02-19T11:50:50.417Z,11.50
2023-02-19T11:53:16.627Z,10.80
2023-02-19T11:55:49.742Z,9.18
2023-02-19T11:58:34.514Z,12.55
2023-02-19T12:01:12.273Z,12.02
2023-02-19T12:03:57.498Z,12.35
2023-02-19T12:06:47.031Z,14.05
2023-02-19T12:09:19.585Z,11.63
2023-02-19T12:12:01.335Z,9.93
2023-02-19T12:14:42.858Z,9.98
2023-02-19T12:17:27.658Z,12.48
2023-02-19T12:20:10.468Z,9.05
2023-02-19T12:22:40.988Z,8.68
2023-02-19T12:25:23.590Z,7.82
2023-02-19T12:28:02.398Z,10.05
2023-02-19T12:30:47.189Z,11.40
2023-02-19T12:33:13.440Z,7.13
2023-02-19T12:35:46.325Z,10.82
2023-02-19T12:38:15.624Z,7.07
2023-02-19T12:40:44.955Z,10.00
2023-02-19T12:43:17.763Z,8.45
2023-02-19T12:45:49.398Z,6.80
2023-02-19T12:48:23.729Z,7.90
2023-02-19T12:50:52.672Z,6.85
2023-02-19T12:53:21.868Z,10.07
2023-02-19T12:55:48.482Z,8.57
2023-02-19T12:58:18.848Z,7.82
2023-02-19T13:00:50.549Z,9.77
2023-02-19T13:03:22.591Z,8.38
2023-02-19T13:06:04.258Z,9.82
2023-02-19T13:11:03.029Z,11.00
2023-02-19T13:13:35.866Z,7.57
2023-02-19T13:16:04.138Z,10.63
2023-02-19T13:18:34.059Z,8.65
2023-02-19T13:21:00.829Z,9.30
2023-02-19T13:23:47.680Z,11.02
2023-02-19T13:26:26.203Z,7.63
2023-02-19T13:28:57.562Z,8.35
2023-02-19T13:31:26.639Z,4.70
2023-02-19T13:34:05.108Z,3.53
2023-02-19T13:36:31.944Z,5.90
2023-02-19T13:38:59.261Z,3.92
2023-02-19T13:41:34.904Z,4.82
2023-02-19T13:44:06.069Z,5.93
2023-02-19T13:46:33.591Z,3.40
2023-02-19T13:49:18.532Z,4.40
2023-02-19T13:51:49.462Z,5.40
2023-02-19T13:54:42.081Z,5.68
2023-02-19T13:57:23.573Z,5.95
2023-02-19T13:59:50.517Z,6.55
2023-02-19T14:02:26.605Z,8.10
2023-02-19T14:04:52.923Z,6.25
2023-02-19T14:07:19.115Z,6.30
2023-02-19T14:09:45.912Z,8.55
2023-02-19T14:12:16.008Z,6.85
2023-02-19T14:14:51.827Z,7.75
2023-02-19T14:17:23.872Z,11.88
2023-02-19T14:19:50.100Z,8.40
2023-02-19T14:22:35.042Z,8.13
2023-02-19T14:25:01.369Z,9.50
2023-02-19T14:27:27.594Z,12.55
2023-02-19T14:29:53.916Z,9.27
2023-02-19T14:32:20.550Z,12.82
2023-02-19T14:34:46.853Z,9.85
2023-02-19T14:37:18.181Z,11.20
2023-02-19T14:39:44.468Z,12.60
2023-02-19T14:42:20.343Z,12.07
2023-02-19T14:44:46.544Z,12.02
2023-02-19T14:47:14.259Z,12.13
2023-02-19T14:49:42.796Z,16.30
2023-02-19T14:52:17.678Z,12.23
2023-02-19T14:54:47.933Z,13.95
2023-02-19T14:57:18.584Z,10.70
2023-02-19T14:59:55.469Z,13.33
2023-02-19T15:02:21.964Z,13.35
2023-02-19T15:04:48.804Z,12.60
2023-02-19T15:07:17.261Z,11.40
2023-02-19T15:09:46.757Z,15.00
2023-02-19T15:12:21.445Z,12.98
2023-02-19T15:14:48.441Z,13.65
2023-02-19T15:17:17.734Z,13.48
2023-02-19T15:19:43.964Z,14.85
2023-02-19T15:22:17.562Z,14.23
2023-02-19T15:24:46.044Z,14.55
2023-02-19T15:27:21.200Z,14.30
2023-02-19T15:29:49.036Z,15.95
2023-02-19T15:32:26.062Z,21.92
2023-02-19T15:34:59.282Z,17.67
2023-02-19T15:37:26.724Z,17.23
2023-02-19T15:39:53.169Z,17.58
2023-02-19T15:42:27.830Z,17.13
2023-02-19T15:44:54.006Z,15.52
2023-02-19T15:47:49.823Z,15.52
2023-02-19T15:50:17.628Z,21.08
2023-02-19T15:52:46.641Z,19.08
2023-02-19T15:55:12.908Z,14.38
2023-02-19T15:57:43.700Z,17.38
2023-02-19T16:00:23.733Z,14.45
2023-02-19T16:02:50.230Z,16.13
2023-02-19T16:05:23.886Z,16.17
2023-02-19T16:08:05.359Z,12.90
2023-02-19T16:10:32.492Z,12.98
2023-02-19T16:12:59.773Z,14.13
2023-02-19T16:15:30.670Z,17.95
2023-02-19T16:17:57.636Z,16.20
2023-02-19T16:20:26.187Z,16.17
2023-02-19T16:22:56.170Z,15.77
2023-02-19T16:25:28.280Z,14.93
2023-02-19T16:27:54.842Z,14.10
2023-02-19T16:30:31.489Z,16.25
2023-02-19T16:33:16.429Z,14.63
2023-02-19T16:35:44.832Z,12.00
2023-02-19T16:38:15.425Z,13.35
2023-02-19T16:40:47.680Z,13.97
2023-02-19T16:43:13.908Z,15.55
2023-02-19T16:45:43.757Z,15.95
2023-02-19T16:48:10.118Z,14.05
2023-02-19T16:50:36.510Z,17.17
2023-02-19T16:53:03.714Z,17.38
2023-02-19T16:55:31.085Z,21.15
2023-02-19T16:57:57.363Z,17.88
2023-02-19T17:00:25.509Z,19.52
2023-02-19T17:02:53.313Z,21.50
2023-02-19T17:05:20.266Z,15.50
2023-02-19T17:07:46.460Z,17.60
2023-02-19T17:10:19.741Z,17.63
2023-02-19T17:12:46.131Z,17.85
2023-02-19T17:15:12.667Z,18.15
2023-02-19T17:17:38.931Z,16.23
2023-02-19T17:20:31.622Z,13.73
2023-02-19T17:22:58.852Z,18.98
2023-02-19T17:25:25.092Z,15.63
2023-02-19T17:27:51.375Z,14.68
2023-02-19T17:30:19.880Z,17.35
2023-02-19T17:32:46.145Z,14.60
2023-02-19T17:35:13.231Z,13.38
2023-02-19T17:37:39.458Z,15.55
2023-02-19T17:40:31.775Z,14.25
2023-02-19T17:42:59.193Z,12.60
2023-02-19T17:45:25.403Z,14.45
2023-02-19T17:47:51.653Z,12.25
2023-02-19T17:50:19.285Z,12.55
2023-02-19T17:52:45.514Z,10.65
2023-02-19T17:55:12.501Z,6.93
2023-02-19T17:57:38.723Z,5.78
2023-02-19T18:00:05.457Z,9.13
2023-02-19T18:02:31.738Z,5.30
2023-02-19T18:04:57.977Z,6.38
2023-02-19T18:07:24.168Z,3.80
2023-02-19T18:09:50.454Z,4.72
2023-02-19T18:12:16.898Z,3.47
2023-02-19T18:14:44.846Z,6.35
2023-02-19T18:17:11.042Z,4.38
2023-02-19T18:19:37.300Z,4.28
2023-02-19T18:22:06.295Z,2.75
2023-02-19T18:24:32.839Z,2.22
2023-02-19T18:26:59.058Z,2.75
2023-02-19T18:29:27.048Z,2.88
2023-02-19T18:31:53.371Z,3.95
2023-02-19T18:34:19.751Z,3.35
2023-02-19T18:36:49.268Z,2.63
2023-02-19T18:39:15.890Z,4.85
2023-02-19T18:41:45.976Z,2.35
2023-02-19T18:44:12.190Z,2.95
2023-02-19T18:46:38.415Z,2.90
2023-02-19T18:49:04.645Z,2.90
2023-02-19T18:51:30.949Z,2.53
2023-02-19T18:53:58.278Z,3.97
2023-02-19T18:56:24.478Z,2.40
2023-02-19T18:58:50.685Z,6.00
2023-02-19T19:01:16.987Z,5.32
2023-02-19T19:03:43.209Z,5.72
2023-02-19T19:06:09.414Z,4.50
2023-02-19T19:08:35.649Z,3.95
2023-02-19T19:11:01.882Z,3.10
2023-02-19T19:13:28.082Z,3.28
2023-02-19T19:15:54.398Z,4.15
2023-02-19T19:18:20.756Z,4.90
2023-02-19T19:20:47.038Z,4.13
2023-02-19T19:23:13.517Z,3.67
2023-02-19T19:25:39.716Z,4.00
2023-02-19T19:28:05.910Z,4.00
2023-02-19T19:30:33.541Z,4.05
2023-02-19T19:33:01.695Z,5.43
2023-02-19T19:35:28.577Z,5.45
2023-02-19T19:37:54.797Z,6.63
2023-02-19T19:40:21.065Z,5.72
2023-02-19T19:42:50.183Z,7.45
2023-02-19T19:45:16.486Z,5.20
2023-02-19T19:47:42.775Z,5.50
2023-02-19T19:50:09.650Z,5.60
2023-02-19T19:52:35.869Z,5.38
2023-02-19T19:55:02.264Z,3.78
2023-02-19T19:57:28.485Z,4.00
2023-02-19T19:59:54.728Z,5.57
2023-02-19T20:02:21.189Z,4.40
2023-02-19T20:04:47.447Z,4.57
2023-02-19T20:07:13.662Z,4.00
2023-02-19T20:09:39.883Z,4.47
2023-02-19T20:12:06.476Z,6.13
2023-02-19T20:14:33.653Z,3.90
2023-02-19T20:17:00.695Z,4.10
2023-02-19T20:19:26.919Z,4.00
2023-02-19T20:21:53.563Z,4.90
2023-02-19T20:24:23.924Z,5.00
2023-02-19T20:26:51.205Z,4.90
2023-02-19T20:29:17.501Z,4.10
2023-02-19T20:31:48.032Z,4.90
2023-02-19T20:34:14.433Z,4.37
2023-02-19T20:36:44.099Z,4.43
2023-02-19T20:39:10.478Z,4.32
2023-02-19T20:41:36.773Z,4.85
2023-02-19T20:44:03.289Z,6.70
2023-02-19T20:46:29.873Z,3.85
2023-02-19T20:48:56.438Z,4.13
2023-02-19T20:51:22.775Z,7.25
2023-02-19T20:53:49.198Z,3.65
2023-02-19T20:56:15.655Z,2.85
2023-02-19T20:58:42.954Z,5.13
2023-02-19T21:01:11.498Z,2.53
2023-02-19T21:03:37.737Z,3.53
2023-02-19T21:06:04.247Z,2.60
2023-02-19T21:08:30.441Z,4.72
2023-02-19T21:10:56.651Z,3.00
2023-02-19T21:13:23.371Z,3.95
2023-02-19T21:15:49.587Z,4.80
2023-02-19T21:18:17.258Z,2.55
2023-02-19T21:20:43.474Z,2.58
2023-02-19T21:23:09.693Z,3.47
2023-02-19T21:25:35.993Z,4.20
2023-02-19T21:28:02.222Z,3.47
2023-02-19T21:30:28.539Z,2.72
2023-02-19T21:32:54.746Z,3.47
2023-02-19T21:35:20.977Z,3.53
2023-02-19T21:37:47.231Z,4.03
2023-02-19T21:40:13.595Z,5.70
2023-02-19T21:42:39.834Z,2.95
2023-02-19T21:45:06.318Z,3.40
2023-02-19T21:47:32.516Z,7.00
2023-02-19T21:49:58.759Z,4.63
2023-02-19T21:52:26.756Z,7.72
2023-02-19T21:54:53.089Z,4.13
2023-02-19T21:57:19.288Z,5.28
2023-02-19T21:59:45.578Z,3.88
2023-02-19T22:02:12.050Z,5.40
2023-02-19T22:04:38.239Z,3.75
2023-02-19T22:07:04.651Z,5.70
2023-02-19T22:09:30.864Z,6.95
2023-02-19T22:11:57.112Z,6.25
2023-02-19T22:14:23.333Z,4.88
2023-02-19T22:16:49.669Z,4.85
2023-02-19T22:19:16.146Z,3.85
2023-02-19T22:21:43.634Z,5.72
2023-02-19T22:24:14.345Z,5.20
2023-02-19T22:26:40.589Z,6.07
2023-02-19T22:29:08.199Z,4.43
2023-02-19T22:31:34.674Z,6.18
2023-02-19T22:34:01.022Z,5.60
2023-02-19T22:36:28.123Z,7.75
2023-02-19T22:38:54.571Z,8.20
2023-02-19T22:41:21.000Z,6.68
2023-02-19T22:43:47.568Z,5.72
2023-02-19T22:46:16.669Z,8.85
2023-02-19T22:48:43.107Z,6.20
2023-02-19T22:51:13.591Z,6.47
2023-02-19T22:53:46.361Z,6.70
2023-02-19T22:56:13.976Z,6.95
2023-02-19T22:58:41.029Z,5.78
2023-02-19T23:01:07.649Z,6.43
2023-02-19T23:03:33.935Z,6.80
2023-02-19T23:06:03.058Z,6.63
2023-02-19T23:08:29.291Z,8.32
2023-02-19T23:10:55.490Z,7.40
2023-02-19T23:13:21.688Z,8.73
2023-02-19T23:15:47.901Z,6.63
2023-02-19T23:18:14.146Z,7.00
2023-02-19T23:20:40.359Z,6.93
2023-02-19T23:23:06.599Z,8.07
2023-02-19T23:25:32.809Z,7.53
2023-02-19T23:27:59.005Z,9.43
2023-02-19T23:30:25.996Z,8.48
2023-02-19T23:32:53.347Z,10.30
2023-02-19T23:35:19.562Z,10.57
2023-02-19T23:37:46.780Z,10.68
2023-02-19T23:40:13.261Z,9.38
2023-02-19T23:42:39.459Z,7.32
2023-02-19T23:45:05.745Z,9.75
2023-02-19T23:47:31.966Z,9.73
2023-02-19T23:56:54.971Z,11.45
2023-02-19T23:59:21.214Z,10.50
